createdAt,value
2022-12-09T00:00:05.259Z,17.20
2022-12-09T00:00:14.787Z,17.70
2022-12-09T00:00:25.147Z,18.50
2022-12-09T00:00:34.643Z,18.50
2022-12-09T00:00:44.675Z,18.50
2022-12-09T00:00:54.676Z,18.70
2022-12-09T00:01:05.044Z,19.00
2022-12-09T00:01:14.860Z,18.60
2022-12-09T00:01:24.847Z,18.20
2022-12-09T00:01:34.769Z,18.30
2022-12-09T00:01:44.634Z,18.80
2022-12-09T00:01:57.274Z,18.30
2022-12-09T00:02:04.843Z,17.90
2022-12-09T00:02:15.014Z,17.70
2022-12-09T00:02:25.001Z,17.90
2022-12-09T00:02:34.926Z,18.20
2022-12-09T00:02:44.888Z,17.80
2022-12-09T00:02:54.843Z,17.70
2022-12-09T00:03:04.927Z,17.60
2022-12-09T00:03:17.776Z,17.30
2022-12-09T00:03:24.823Z,17.30
2022-12-09T00:03:35.384Z,17.40
2022-12-09T00:03:44.875Z,18.20
2022-12-09T00:03:54.768Z,18.30
2022-12-09T00:04:04.760Z,18.10
2022-12-09T00:04:14.978Z,18.20
2022-12-09T00:04:24.952Z,17.80
2022-12-09T00:04:34.901Z,17.60
2022-12-09T00:04:44.942Z,17.10
2022-12-09T00:04:54.726Z,17.40
2022-12-09T00:05:05.502Z,17.90
2022-12-09T00:05:14.795Z,18.40
2022-12-09T00:05:24.700Z,19.00
2022-12-09T00:05:34.670Z,18.40
2022-12-09T00:05:44.624Z,17.70
2022-12-09T00:05:54.615Z,17.20
2022-12-09T00:06:04.748Z,17.90
2022-12-09T00:06:14.643Z,18.60
2022-12-09T00:06:24.741Z,19.00
2022-12-09T00:06:34.614Z,20.10
2022-12-09T00:06:45.186Z,19.70
2022-12-09T00:06:54.795Z,19.70
2022-12-09T00:07:04.619Z,18.70
2022-12-09T00:07:14.694Z,19.00
2022-12-09T00:07:24.849Z,19.40
2022-12-09T00:07:34.636Z,18.40
2022-12-09T00:07:44.834Z,18.90
2022-12-09T00:07:54.749Z,18.70
2022-12-09T00:08:04.723Z,19.10
2022-12-09T00:08:14.914Z,19.00
2022-12-09T00:08:24.721Z,18.20
2022-12-09T00:08:34.772Z,18.20
2022-12-09T00:08:44.676Z,17.50
2022-12-09T00:08:54.795Z,17.70
2022-12-09T00:09:04.755Z,18.70
2022-12-09T00:09:14.768Z,19.40
2022-12-09T00:09:24.650Z,18.90
2022-12-09T00:09:34.710Z,18.60
2022-12-09T00:09:44.673Z,19.10
2022-12-09T00:09:54.840Z,19.80
2022-12-09T00:10:05.031Z,19.40
2022-12-09T00:10:14.684Z,17.60
2022-12-09T00:10:24.850Z,18.40
2022-12-09T00:10:34.731Z,18.90
2022-12-09T00:10:44.601Z,19.50
2022-12-09T00:10:55.150Z,18.90
2022-12-09T00:11:04.748Z,18.50
2022-12-09T00:11:14.711Z,18.70
2022-12-09T00:11:24.767Z,18.70
2022-12-09T00:11:34.604Z,18.50
2022-12-09T00:11:44.598Z,18.50
2022-12-09T00:11:54.743Z,18.40
2022-12-09T00:12:04.840Z,18.40
2022-12-09T00:12:15.166Z,18.40
2022-12-09T00:12:24.711Z,18.60
2022-12-09T00:12:34.624Z,18.90
2022-12-09T00:12:44.620Z,18.90
2022-12-09T00:12:54.590Z,18.20
2022-12-09T00:13:04.583Z,18.60
2022-12-09T00:13:14.861Z,18.80
2022-12-09T00:13:24.667Z,19.60
2022-12-09T00:13:34.585Z,19.40
2022-12-09T00:13:45.361Z,18.40
2022-12-09T00:13:54.774Z,18.80
2022-12-09T00:14:04.724Z,20.90
2022-12-09T00:14:14.814Z,21.40
2022-12-09T00:14:24.581Z,21.30
2022-12-09T00:14:34.616Z,19.10
2022-12-09T00:14:44.718Z,19.50
2022-12-09T00:14:54.578Z,18.60
2022-12-09T00:15:04.599Z,18.40
2022-12-09T00:15:14.708Z,17.80
2022-12-09T00:15:24.888Z,17.70
2022-12-09T00:15:34.685Z,18.80
2022-12-09T00:15:45.204Z,19.10
2022-12-09T00:15:55.362Z,19.80
2022-12-09T00:16:04.749Z,18.90
2022-12-09T00:16:14.818Z,19.20
2022-12-09T00:16:24.752Z,20.50
2022-12-09T00:16:35.408Z,20.30
2022-12-09T00:16:44.862Z,20.30
2022-12-09T00:16:54.872Z,18.40
2022-12-09T00:17:04.775Z,18.30
2022-12-09T00:17:14.890Z,18.10
2022-12-09T00:17:25.534Z,18.70
2022-12-09T00:17:34.876Z,18.70
2022-12-09T00:17:44.710Z,18.60
2022-12-09T00:17:54.787Z,18.30
2022-12-09T00:18:04.570Z,17.80
2022-12-09T00:18:14.880Z,17.90
2022-12-09T00:18:24.741Z,17.60
2022-12-09T00:18:34.842Z,18.00
2022-12-09T00:18:44.560Z,17.80
2022-12-09T00:18:54.799Z,18.30
2022-12-09T00:19:04.784Z,18.90
2022-12-09T00:19:15.188Z,19.40
2022-12-09T00:19:24.681Z,19.00
2022-12-09T00:19:34.826Z,18.60
2022-12-09T00:19:44.560Z,17.90
2022-12-09T00:19:54.761Z,18.00
2022-12-09T00:20:04.905Z,17.70
2022-12-09T00:20:14.636Z,18.20
2022-12-09T00:20:24.587Z,18.60
2022-12-09T00:20:34.803Z,19.20
2022-12-09T00:20:45.355Z,19.90
2022-12-09T00:20:54.572Z,20.40
2022-12-09T00:21:04.565Z,20.80
2022-12-09T00:21:14.614Z,20.40
2022-12-09T00:21:24.663Z,20.10
2022-12-09T00:21:34.770Z,19.40
2022-12-09T00:21:44.582Z,18.60
2022-12-09T00:21:54.558Z,17.70
2022-12-09T00:22:04.552Z,17.80
2022-12-09T00:22:14.852Z,18.00
2022-12-09T00:22:24.657Z,18.10
2022-12-09T00:22:34.678Z,18.50
2022-12-09T00:22:44.566Z,18.60
2022-12-09T00:22:54.783Z,18.80
2022-12-09T00:23:04.551Z,18.10
2022-12-09T00:23:14.582Z,17.70
2022-12-09T00:23:24.739Z,18.40
2022-12-09T00:23:34.909Z,18.80
2022-12-09T00:23:44.559Z,19.10
2022-12-09T00:23:54.817Z,18.40
2022-12-09T00:24:04.543Z,18.70
2022-12-09T00:24:14.855Z,18.60
2022-12-09T00:24:24.532Z,19.00
2022-12-09T00:24:34.560Z,19.30
2022-12-09T00:24:44.662Z,20.20
2022-12-09T00:24:54.799Z,20.00
2022-12-09T00:25:04.552Z,18.90
2022-12-09T00:25:14.756Z,18.10
2022-12-09T00:25:24.568Z,17.90
2022-12-09T00:25:35.275Z,19.10
2022-12-09T00:25:44.598Z,18.70
2022-12-09T00:25:54.573Z,18.40
2022-12-09T00:26:04.664Z,18.50
2022-12-09T00:26:14.525Z,18.80
2022-12-09T00:26:24.627Z,19.40
2022-12-09T00:26:34.554Z,19.50
2022-12-09T00:26:44.707Z,19.20
2022-12-09T00:26:54.537Z,18.80
2022-12-09T00:27:04.729Z,18.00
2022-12-09T00:27:14.524Z,18.50
2022-12-09T00:27:24.546Z,18.70
2022-12-09T00:27:35.210Z,19.10
2022-12-09T00:27:45.325Z,18.30
2022-12-09T00:27:54.691Z,18.50
2022-12-09T00:28:04.624Z,17.90
2022-12-09T00:28:14.524Z,19.10
2022-12-09T00:28:24.548Z,19.50
2022-12-09T00:28:34.764Z,19.90
2022-12-09T00:28:44.524Z,19.10
2022-12-09T00:28:54.530Z,18.60
2022-12-09T00:29:04.744Z,17.70
2022-12-09T00:29:14.783Z,17.90
2022-12-09T00:29:25.215Z,17.80
2022-12-09T00:29:34.514Z,19.60
2022-12-09T00:29:44.625Z,20.40
2022-12-09T00:29:54.515Z,20.70
2022-12-09T00:30:04.997Z,19.10
2022-12-09T00:30:15.444Z,18.50
2022-12-09T00:30:24.534Z,17.80
2022-12-09T00:30:34.658Z,18.60
2022-12-09T00:30:44.626Z,18.20
2022-12-09T00:30:54.751Z,18.30
2022-12-09T00:31:04.855Z,19.00
2022-12-09T00:31:14.996Z,19.60
2022-12-09T00:31:24.768Z,19.70
2022-12-09T00:31:34.843Z,19.10
2022-12-09T00:31:44.595Z,18.90
2022-12-09T00:31:55.336Z,19.70
2022-12-09T00:32:04.885Z,19.60
2022-12-09T00:32:14.606Z,19.60
2022-12-09T00:32:24.805Z,19.00
2022-12-09T00:32:34.709Z,18.70
2022-12-09T00:32:44.608Z,18.80
2022-12-09T00:32:54.818Z,19.40
2022-12-09T00:33:04.748Z,20.10
2022-12-09T00:33:14.538Z,20.30
2022-12-09T00:33:24.500Z,19.70
2022-12-09T00:33:34.624Z,17.90
2022-12-09T00:33:44.553Z,17.90
2022-12-09T00:33:54.516Z,17.90
2022-12-09T00:34:04.532Z,19.80
2022-12-09T00:34:14.653Z,19.30
2022-12-09T00:34:24.761Z,19.80
2022-12-09T00:34:34.512Z,19.10
2022-12-09T00:34:45.226Z,19.80
2022-12-09T00:34:54.579Z,19.30
2022-12-09T00:35:04.814Z,19.20
2022-12-09T00:35:14.546Z,19.40
2022-12-09T00:35:24.503Z,19.40
2022-12-09T00:35:34.507Z,19.10
2022-12-09T00:35:44.552Z,18.50
2022-12-09T00:35:55.163Z,18.70
2022-12-09T00:36:04.818Z,18.80
2022-12-09T00:36:14.603Z,19.10
2022-12-09T00:36:25.238Z,19.10
2022-12-09T00:36:34.624Z,19.60
2022-12-09T00:36:44.599Z,19.30
2022-12-09T00:36:54.630Z,18.70
2022-12-09T00:37:04.502Z,18.00
2022-12-09T00:37:14.560Z,17.40
2022-12-09T00:37:24.765Z,18.40
2022-12-09T00:37:34.561Z,19.90
2022-12-09T00:37:44.479Z,20.70
2022-12-09T00:37:54.502Z,20.20
2022-12-09T00:38:04.487Z,18.90
2022-12-09T00:38:14.515Z,19.30
2022-12-09T00:38:24.546Z,19.30
2022-12-09T00:38:34.554Z,19.00
2022-12-09T00:38:44.581Z,19.30
2022-12-09T00:38:55.156Z,19.90
2022-12-09T00:39:04.518Z,19.80
2022-12-09T00:39:14.512Z,18.70
2022-12-09T00:39:24.525Z,18.70
2022-12-09T00:39:34.654Z,19.10
2022-12-09T00:39:44.512Z,19.80
2022-12-09T00:39:54.482Z,18.60
2022-12-09T00:40:04.781Z,18.60
2022-12-09T00:40:14.486Z,18.20
2022-12-09T00:40:24.483Z,18.30
2022-12-09T00:40:34.695Z,18.70
2022-12-09T00:40:44.483Z,18.90
2022-12-09T00:40:54.656Z,20.10
2022-12-09T00:41:04.528Z,19.70
2022-12-09T00:41:14.729Z,19.20
2022-12-09T00:41:24.532Z,18.70
2022-12-09T00:41:34.604Z,18.50
2022-12-09T00:41:45.265Z,19.70
2022-12-09T00:41:54.546Z,20.20
2022-12-09T00:42:04.500Z,20.90
2022-12-09T00:42:14.528Z,20.10
2022-12-09T00:42:24.486Z,19.70
2022-12-09T00:42:34.464Z,20.70
2022-12-09T00:42:45.276Z,20.70
2022-12-09T00:42:54.651Z,20.40
2022-12-09T00:43:04.659Z,18.80
2022-12-09T00:43:14.464Z,19.00
2022-12-09T00:43:24.525Z,19.20
2022-12-09T00:43:34.469Z,19.80
2022-12-09T00:43:44.757Z,19.30
2022-12-09T00:43:54.488Z,19.40
2022-12-09T00:44:04.710Z,19.30
2022-12-09T00:44:14.447Z,19.00
2022-12-09T00:44:24.567Z,19.00
2022-12-09T00:44:34.589Z,18.50
2022-12-09T00:44:44.644Z,19.00
2022-12-09T00:44:54.600Z,19.10
2022-12-09T00:45:04.569Z,19.40
2022-12-09T00:45:14.474Z,20.10
2022-12-09T00:45:24.615Z,19.90
2022-12-09T00:45:34.464Z,20.80
2022-12-09T00:45:44.443Z,20.00
2022-12-09T00:45:55.304Z,19.80
2022-12-09T00:46:04.756Z,19.30
2022-12-09T00:46:14.568Z,19.30
2022-12-09T00:46:24.611Z,19.40
2022-12-09T00:46:34.674Z,19.00
2022-12-09T00:46:44.657Z,19.20
2022-12-09T00:46:54.488Z,19.30
2022-12-09T00:47:04.563Z,18.70
2022-12-09T00:47:14.666Z,18.50
2022-12-09T00:47:24.575Z,18.50
2022-12-09T00:47:34.563Z,19.20
2022-12-09T00:47:44.489Z,19.30
2022-12-09T00:47:54.705Z,18.60
2022-12-09T00:48:04.509Z,18.80
2022-12-09T00:48:15.264Z,19.30
2022-12-09T00:48:24.456Z,20.40
2022-12-09T00:48:34.823Z,20.10
2022-12-09T00:48:44.583Z,19.70
2022-12-09T00:48:54.489Z,19.40
2022-12-09T00:49:04.550Z,19.30
2022-12-09T00:49:14.435Z,19.50
2022-12-09T00:49:24.437Z,19.10
2022-12-09T00:49:34.668Z,19.90
2022-12-09T00:49:44.442Z,20.20
2022-12-09T00:49:54.654Z,21.00
2022-12-09T00:50:05.115Z,20.50
2022-12-09T00:50:14.543Z,19.80
2022-12-09T00:50:24.425Z,19.00
2022-12-09T00:50:35.309Z,19.20
2022-12-09T00:50:44.780Z,19.60
2022-12-09T00:50:54.450Z,20.50
2022-12-09T00:51:04.781Z,20.30
2022-12-09T00:51:14.496Z,21.00
2022-12-09T00:51:24.711Z,20.70
2022-12-09T00:51:34.726Z,21.10
2022-12-09T00:51:44.610Z,20.20
2022-12-09T00:51:54.634Z,19.60
2022-12-09T00:52:04.429Z,18.90
2022-12-09T00:52:14.545Z,19.80
2022-12-09T00:52:24.439Z,20.30
2022-12-09T00:52:34.603Z,20.50
2022-12-09T00:52:44.506Z,19.20
2022-12-09T00:52:55.169Z,19.40
2022-12-09T00:53:04.476Z,19.30
2022-12-09T00:53:14.586Z,19.60
2022-12-09T00:53:24.482Z,20.30
2022-12-09T00:53:34.645Z,20.10
2022-12-09T00:53:44.479Z,19.90
2022-12-09T00:53:55.064Z,18.90
2022-12-09T00:54:04.756Z,19.30
2022-12-09T00:54:14.544Z,19.40
2022-12-09T00:54:24.650Z,18.90
2022-12-09T00:54:35.384Z,18.80
2022-12-09T00:54:44.493Z,19.00
2022-12-09T00:54:54.574Z,19.90
2022-12-09T00:55:04.602Z,19.90
2022-12-09T00:55:14.555Z,20.90
2022-12-09T00:55:24.747Z,19.70
2022-12-09T00:55:35.290Z,19.60
2022-12-09T00:55:44.737Z,18.90
2022-12-09T00:55:54.425Z,19.80
2022-12-09T00:56:04.424Z,19.70
2022-12-09T00:56:14.626Z,19.80
2022-12-09T00:56:24.422Z,20.40
2022-12-09T00:56:34.649Z,21.20
2022-12-09T00:56:44.536Z,21.00
2022-12-09T00:56:54.465Z,20.20
2022-12-09T00:57:05.233Z,19.80
2022-12-09T00:57:14.600Z,20.00
2022-12-09T00:57:24.433Z,20.50
2022-12-09T00:57:34.437Z,20.80
2022-12-09T00:57:44.665Z,20.90
2022-12-09T00:57:54.560Z,20.50
2022-12-09T00:58:04.392Z,20.20
2022-12-09T00:58:14.459Z,20.30
2022-12-09T00:58:24.439Z,20.90
2022-12-09T00:58:34.492Z,20.80
2022-12-09T00:58:44.551Z,20.20
2022-12-09T00:58:54.471Z,19.60
2022-12-09T00:59:04.499Z,19.10
2022-12-09T00:59:14.402Z,19.20
2022-12-09T00:59:24.574Z,19.80
2022-12-09T00:59:34.633Z,20.50
2022-12-09T00:59:44.585Z,21.40
2022-12-09T00:59:54.724Z,21.10
2022-12-09T01:00:05.046Z,20.70
2022-12-09T01:00:14.397Z,19.80
2022-12-09T01:00:24.480Z,19.40
2022-12-09T01:00:34.545Z,20.10
2022-12-09T01:00:44.677Z,20.00
2022-12-09T01:00:54.409Z,19.90
2022-12-09T01:01:04.731Z,19.30
2022-12-09T01:01:15.201Z,19.70
2022-12-09T01:01:24.599Z,19.70
2022-12-09T01:01:35.314Z,19.70
2022-12-09T01:01:44.579Z,19.60
2022-12-09T01:01:54.548Z,19.70
2022-12-09T01:02:04.508Z,19.20
2022-12-09T01:02:14.821Z,19.10
2022-12-09T01:02:24.620Z,20.00
2022-12-09T01:02:34.538Z,20.70
2022-12-09T01:02:44.668Z,20.60
2022-12-09T01:02:54.643Z,19.60
2022-12-09T01:03:04.652Z,19.70
2022-12-09T01:03:14.661Z,20.00
2022-12-09T01:03:24.555Z,20.40
2022-12-09T01:03:34.673Z,19.80
2022-12-09T01:03:44.568Z,20.20
2022-12-09T01:03:54.552Z,20.00
2022-12-09T01:04:05.411Z,20.60
2022-12-09T01:04:14.469Z,20.00
2022-12-09T01:04:24.668Z,20.80
2022-12-09T01:04:34.466Z,20.70
2022-12-09T01:04:44.675Z,21.00
2022-12-09T01:04:54.401Z,20.30
2022-12-09T01:05:04.726Z,20.30
2022-12-09T01:05:14.528Z,20.20
2022-12-09T01:05:25.305Z,20.30
2022-12-09T01:05:34.445Z,20.30
2022-12-09T01:05:44.413Z,20.80
2022-12-09T01:05:54.570Z,20.80
2022-12-09T01:06:05.189Z,20.70
2022-12-09T01:06:15.257Z,19.70
2022-12-09T01:06:24.457Z,19.50
2022-12-09T01:06:34.377Z,19.50
2022-12-09T01:06:44.659Z,20.20
2022-12-09T01:06:54.542Z,20.70
2022-12-09T01:07:04.413Z,21.10
2022-12-09T01:07:14.399Z,21.70
2022-12-09T01:07:24.449Z,21.00
2022-12-09T01:07:34.470Z,20.80
2022-12-09T01:07:44.766Z,19.90
2022-12-09T01:07:54.621Z,20.50
2022-12-09T01:08:04.415Z,21.00
2022-12-09T01:08:14.513Z,21.40
2022-12-09T01:08:24.441Z,21.30
2022-12-09T01:08:38.340Z,21.10
2022-12-09T01:08:45.824Z,20.80
2022-12-09T01:08:54.508Z,20.50
2022-12-09T01:09:04.647Z,20.20
2022-12-09T01:09:14.736Z,21.00
2022-12-09T01:09:24.395Z,21.60
2022-12-09T01:09:34.443Z,20.80
2022-12-09T01:09:44.355Z,18.90
2022-12-09T01:09:55.404Z,17.80
2022-12-09T01:10:05.100Z,18.10
2022-12-09T01:10:14.560Z,19.60
2022-12-09T01:10:24.367Z,20.40
2022-12-09T01:10:34.397Z,21.40
2022-12-09T01:10:44.366Z,21.30
2022-12-09T01:10:54.352Z,21.00
2022-12-09T01:11:04.453Z,20.60
2022-12-09T01:11:14.403Z,20.70
2022-12-09T01:11:25.333Z,20.80
2022-12-09T01:11:34.499Z,19.40
2022-12-09T01:11:44.445Z,20.10
2022-12-09T01:11:54.334Z,20.00
2022-12-09T01:12:04.348Z,22.00
2022-12-09T01:12:14.622Z,21.00
2022-12-09T01:12:24.573Z,21.00
2022-12-09T01:12:34.532Z,20.00
2022-12-09T01:12:44.486Z,20.20
2022-12-09T01:12:54.541Z,20.60
2022-12-09T01:13:04.477Z,20.60
2022-12-09T01:13:14.429Z,20.60
2022-12-09T01:13:24.356Z,20.60
2022-12-09T01:13:34.511Z,19.80
2022-12-09T01:13:44.346Z,20.70
2022-12-09T01:13:54.683Z,21.50
2022-12-09T01:14:04.624Z,22.00
2022-12-09T01:14:14.386Z,21.20
2022-12-09T01:14:24.340Z,20.00
2022-12-09T01:14:34.313Z,20.00
2022-12-09T01:14:44.561Z,20.40
2022-12-09T01:14:54.640Z,20.10
2022-12-09T01:15:04.319Z,20.70
2022-12-09T01:15:15.450Z,19.70
2022-12-09T01:15:24.520Z,19.80
2022-12-09T01:15:34.372Z,19.10
2022-12-09T01:15:44.553Z,21.40
2022-12-09T01:15:54.584Z,22.10
2022-12-09T01:16:04.732Z,22.60
2022-12-09T01:16:14.539Z,20.70
2022-12-09T01:16:24.665Z,20.60
2022-12-09T01:16:35.411Z,20.40
2022-12-09T01:16:44.413Z,20.50
2022-12-09T01:16:54.393Z,20.90
2022-12-09T01:17:04.674Z,21.20
2022-12-09T01:17:14.446Z,21.00
2022-12-09T01:17:25.160Z,20.40
2022-12-09T01:17:34.499Z,20.60
2022-12-09T01:17:44.664Z,20.60
2022-12-09T01:17:55.323Z,20.50
2022-12-09T01:18:04.585Z,19.70
2022-12-09T01:18:14.319Z,20.00
2022-12-09T01:18:24.502Z,19.30
2022-12-09T01:18:34.557Z,19.60
2022-12-09T01:18:44.572Z,19.90
2022-12-09T01:18:54.624Z,20.70
2022-12-09T01:19:04.335Z,21.60
2022-12-09T01:19:14.291Z,21.60
2022-12-09T01:19:25.349Z,21.10
2022-12-09T01:19:34.460Z,20.50
2022-12-09T01:19:44.332Z,20.20
2022-12-09T01:19:55.186Z,20.40
2022-12-09T01:20:04.922Z,20.60
2022-12-09T01:20:14.296Z,20.70
2022-12-09T01:20:24.336Z,20.20
2022-12-09T01:20:34.335Z,19.90
2022-12-09T01:20:44.331Z,19.70
2022-12-09T01:20:54.440Z,20.70
2022-12-09T01:21:04.349Z,20.80
2022-12-09T01:21:14.560Z,21.10
2022-12-09T01:21:24.439Z,20.80
2022-12-09T01:21:34.420Z,21.10
2022-12-09T01:21:44.452Z,21.40
2022-12-09T01:21:54.292Z,21.80
2022-12-09T01:22:04.632Z,21.40
2022-12-09T01:22:15.458Z,22.20
2022-12-09T01:22:24.376Z,21.70
2022-12-09T01:22:34.352Z,21.90
2022-12-09T01:22:44.618Z,21.60
2022-12-09T01:22:54.374Z,21.40
2022-12-09T01:23:04.537Z,21.30
2022-12-09T01:23:14.375Z,21.20
2022-12-09T01:23:24.303Z,21.60
2022-12-09T01:23:34.622Z,22.20
2022-12-09T01:23:44.426Z,21.30
2022-12-09T01:23:54.286Z,21.60
2022-12-09T01:24:04.344Z,21.50
2022-12-09T01:24:14.305Z,22.30
2022-12-09T01:24:24.504Z,23.20
2022-12-09T01:24:34.286Z,23.60
2022-12-09T01:24:44.327Z,23.80
2022-12-09T01:24:54.606Z,21.50
2022-12-09T01:25:04.658Z,21.10
2022-12-09T01:25:14.648Z,19.50
2022-12-09T01:25:24.413Z,20.30
2022-12-09T01:25:34.276Z,20.50
2022-12-09T01:25:44.266Z,21.50
2022-12-09T01:25:54.597Z,21.90
2022-12-09T01:26:04.480Z,20.80
2022-12-09T01:26:14.263Z,20.70
2022-12-09T01:26:25.343Z,19.40
2022-12-09T01:26:34.416Z,19.00
2022-12-09T01:26:44.374Z,19.30
2022-12-09T01:26:54.264Z,20.20
2022-12-09T01:27:04.506Z,20.60
2022-12-09T01:27:14.408Z,19.80
2022-12-09T01:27:24.329Z,20.10
2022-12-09T01:27:34.434Z,20.00
2022-12-09T01:27:44.410Z,19.60
2022-12-09T01:27:54.409Z,19.60
2022-12-09T01:28:04.298Z,19.50
2022-12-09T01:28:14.273Z,19.70
2022-12-09T01:28:24.285Z,19.90
2022-12-09T01:28:34.312Z,19.90
2022-12-09T01:28:44.287Z,19.70
2022-12-09T01:28:54.303Z,19.60
2022-12-09T01:29:05.220Z,20.00
2022-12-09T01:29:14.353Z,20.10
2022-12-09T01:29:24.277Z,19.00
2022-12-09T01:29:34.508Z,18.80
2022-12-09T01:29:44.361Z,19.00
2022-12-09T01:29:54.248Z,18.70
2022-12-09T01:30:04.398Z,18.60
2022-12-09T01:30:14.570Z,18.60
2022-12-09T01:30:24.271Z,20.10
2022-12-09T01:30:34.365Z,20.20
2022-12-09T01:30:44.776Z,20.30
2022-12-09T01:30:54.353Z,19.80
2022-12-09T01:31:05.349Z,20.30
2022-12-09T01:31:14.646Z,20.00
2022-12-09T01:31:24.429Z,20.00
2022-12-09T01:31:34.353Z,19.30
2022-12-09T01:31:44.455Z,19.50
2022-12-09T01:31:54.330Z,19.10
2022-12-09T01:32:04.460Z,19.50
2022-12-09T01:32:14.489Z,19.50
2022-12-09T01:32:24.354Z,20.70
2022-12-09T01:32:34.310Z,20.40
2022-12-09T01:32:44.298Z,20.10
2022-12-09T01:32:55.544Z,20.20
2022-12-09T01:33:04.549Z,20.10
2022-12-09T01:33:14.444Z,20.00
2022-12-09T01:33:24.368Z,18.70
2022-12-09T01:33:34.268Z,20.10
2022-12-09T01:33:44.251Z,20.10
2022-12-09T01:33:54.258Z,20.10
2022-12-09T01:34:04.516Z,18.70
2022-12-09T01:34:15.205Z,19.40
2022-12-09T01:34:24.554Z,20.60
2022-12-09T01:34:34.424Z,22.00
2022-12-09T01:34:45.583Z,20.80
2022-12-09T01:34:54.345Z,20.10
2022-12-09T01:35:04.517Z,19.50
2022-12-09T01:35:14.229Z,19.90
2022-12-09T01:35:25.574Z,20.20
2022-12-09T01:35:34.221Z,19.30
2022-12-09T01:35:44.225Z,19.50
2022-12-09T01:35:54.225Z,19.70
2022-12-09T01:36:04.275Z,19.50
2022-12-09T01:36:15.670Z,18.90
2022-12-09T01:36:24.552Z,19.30
2022-12-09T01:36:34.421Z,20.40
2022-12-09T01:36:44.239Z,20.10
2022-12-09T01:36:54.428Z,19.40
2022-12-09T01:37:04.285Z,18.00
2022-12-09T01:37:14.251Z,18.20
2022-12-09T01:37:24.366Z,17.90
2022-12-09T01:37:34.244Z,17.60
2022-12-09T01:37:44.458Z,18.00
2022-12-09T01:37:54.311Z,18.50
2022-12-09T01:38:04.522Z,19.70
2022-12-09T01:38:14.207Z,19.50
2022-12-09T01:38:24.267Z,19.60
2022-12-09T01:38:34.291Z,19.30
2022-12-09T01:38:44.308Z,18.90
2022-12-09T01:38:54.247Z,18.60
2022-12-09T01:39:04.305Z,19.10
2022-12-09T01:39:14.302Z,18.90
2022-12-09T01:39:24.439Z,19.40
2022-12-09T01:39:34.429Z,18.70
2022-12-09T01:39:44.479Z,18.50
2022-12-09T01:39:54.377Z,17.90
2022-12-09T01:40:04.626Z,18.80
2022-12-09T01:40:14.229Z,19.20
2022-12-09T01:40:25.295Z,20.70
2022-12-09T01:40:34.235Z,20.50
2022-12-09T01:40:44.277Z,20.60
2022-12-09T01:40:54.653Z,19.80
2022-12-09T01:41:04.192Z,19.10
2022-12-09T01:41:14.336Z,18.10
2022-12-09T01:41:24.234Z,17.90
2022-12-09T01:41:34.460Z,18.50
2022-12-09T01:41:44.276Z,20.10
2022-12-09T01:41:54.300Z,20.20
2022-12-09T01:42:04.193Z,21.70
2022-12-09T01:42:14.336Z,21.50
2022-12-09T01:42:24.623Z,20.70
2022-12-09T01:42:34.448Z,19.70
2022-12-09T01:42:44.251Z,19.60
2022-12-09T01:42:55.417Z,20.50
2022-12-09T01:43:04.202Z,21.00
2022-12-09T01:43:14.890Z,20.50
2022-12-09T01:43:24.383Z,20.00
2022-12-09T01:43:34.491Z,19.20
2022-12-09T01:43:44.259Z,19.20
2022-12-09T01:43:54.226Z,19.80
2022-12-09T01:44:04.494Z,19.20
2022-12-09T01:44:15.510Z,18.80
2022-12-09T01:44:24.350Z,17.70
2022-12-09T01:44:35.215Z,18.90
2022-12-09T01:44:44.498Z,18.60
2022-12-09T01:44:54.286Z,19.00
2022-12-09T01:45:04.314Z,17.90
2022-12-09T01:45:14.203Z,19.40
2022-12-09T01:45:24.314Z,19.50
2022-12-09T01:45:34.203Z,20.70
2022-12-09T01:45:44.255Z,19.80
2022-12-09T01:45:54.301Z,20.70
2022-12-09T01:46:04.414Z,19.90
2022-12-09T01:46:14.276Z,19.90
2022-12-09T01:46:24.512Z,18.40
2022-12-09T01:46:34.269Z,17.20
2022-12-09T01:46:44.455Z,16.20
2022-12-09T01:46:54.201Z,16.40
2022-12-09T01:47:04.618Z,17.60
2022-12-09T01:47:14.445Z,18.00
2022-12-09T01:47:25.014Z,16.80
2022-12-09T01:47:34.938Z,15.30
2022-12-09T01:47:44.493Z,15.20
2022-12-09T01:47:54.291Z,15.10
2022-12-09T01:48:04.498Z,14.90
2022-12-09T01:48:14.546Z,14.50
2022-12-09T01:48:24.394Z,15.60
2022-12-09T01:48:34.360Z,16.80
2022-12-09T01:48:44.212Z,17.10
2022-12-09T01:48:54.397Z,16.70
2022-12-09T01:49:04.418Z,15.70
2022-12-09T01:49:14.384Z,15.90
2022-12-09T01:49:24.473Z,14.90
2022-12-09T01:49:34.174Z,15.20
2022-12-09T01:49:44.240Z,13.70
2022-12-09T01:49:54.369Z,14.20
2022-12-09T01:50:04.625Z,14.40
2022-12-09T01:50:14.890Z,14.80
2022-12-09T01:50:24.189Z,14.70
2022-12-09T01:50:34.398Z,14.40
2022-12-09T01:50:44.179Z,14.50
2022-12-09T01:50:54.431Z,13.90
2022-12-09T01:51:04.242Z,14.20
2022-12-09T01:51:14.703Z,14.50
2022-12-09T01:51:24.179Z,15.40
2022-12-09T01:51:34.692Z,15.40
2022-12-09T01:51:44.703Z,15.00
2022-12-09T01:51:54.144Z,14.40
2022-12-09T01:52:04.153Z,14.30
2022-12-09T01:52:14.194Z,15.20
2022-12-09T01:52:24.325Z,15.90
2022-12-09T01:52:34.364Z,15.80
2022-12-09T01:52:44.305Z,16.90
2022-12-09T01:52:54.244Z,16.40
2022-12-09T01:53:04.403Z,16.20
2022-12-09T01:53:14.148Z,13.80
2022-12-09T01:53:24.139Z,13.40
2022-12-09T01:53:34.552Z,13.00
2022-12-09T01:53:44.162Z,13.30
2022-12-09T01:53:54.143Z,13.70
2022-12-09T01:54:04.153Z,13.90
2022-12-09T01:54:14.142Z,14.00
2022-12-09T01:54:24.768Z,13.80
2022-12-09T01:54:34.158Z,13.60
2022-12-09T01:54:44.267Z,13.40
2022-12-09T01:54:54.217Z,13.20
2022-12-09T01:55:04.140Z,13.70
2022-12-09T01:55:14.158Z,13.70
2022-12-09T01:55:24.140Z,13.50
2022-12-09T01:55:34.149Z,12.80
2022-12-09T01:55:44.474Z,12.60
2022-12-09T01:55:54.131Z,12.70
2022-12-09T01:56:04.343Z,12.30
2022-12-09T01:56:14.136Z,12.40
2022-12-09T01:56:24.255Z,11.60
2022-12-09T01:56:34.173Z,11.90
2022-12-09T01:56:44.129Z,12.00
2022-12-09T01:56:54.181Z,12.30
2022-12-09T01:57:04.203Z,12.20
2022-12-09T01:57:14.229Z,12.10
2022-12-09T01:57:24.526Z,12.30
2022-12-09T01:57:34.124Z,12.50
2022-12-09T01:57:44.362Z,12.70
2022-12-09T01:57:54.149Z,14.20
2022-12-09T01:58:04.339Z,13.90
2022-12-09T01:58:14.159Z,13.60
2022-12-09T01:58:24.146Z,12.40
2022-12-09T01:58:34.681Z,12.70
2022-12-09T01:58:44.260Z,12.60
2022-12-09T01:58:54.367Z,12.40
2022-12-09T01:59:04.202Z,12.20
2022-12-09T01:59:14.151Z,12.40
2022-12-09T01:59:24.128Z,12.50
2022-12-09T01:59:34.147Z,12.40
2022-12-09T01:59:44.237Z,12.60
2022-12-09T01:59:54.434Z,12.70
2022-12-09T02:00:05.013Z,13.00
2022-12-09T02:00:14.488Z,13.10
2022-12-09T02:00:24.154Z,12.50
2022-12-09T02:00:34.180Z,12.10
2022-12-09T02:00:44.122Z,11.50
2022-12-09T02:00:54.446Z,11.70
2022-12-09T02:01:04.184Z,11.30
2022-12-09T02:01:14.423Z,11.40
2022-12-09T02:01:24.825Z,11.30
2022-12-09T02:01:34.354Z,11.50
2022-12-09T02:01:44.349Z,11.90
2022-12-09T02:01:54.200Z,11.60
2022-12-09T02:02:04.149Z,11.10
2022-12-09T02:02:14.452Z,11.10
2022-12-09T02:02:24.274Z,11.60
2022-12-09T02:02:34.263Z,12.60
2022-12-09T02:02:44.845Z,12.90
2022-12-09T02:02:54.723Z,12.70
2022-12-09T02:03:04.202Z,12.20
2022-12-09T02:03:14.435Z,12.30
2022-12-09T02:03:24.333Z,12.60
2022-12-09T02:03:34.405Z,12.40
2022-12-09T02:03:44.257Z,11.50
2022-12-09T02:03:54.628Z,11.30
2022-12-09T02:04:04.267Z,11.60
2022-12-09T02:04:14.439Z,12.50
2022-12-09T02:04:24.522Z,12.30
2022-12-09T02:04:34.316Z,12.10
2022-12-09T02:04:44.423Z,11.90
2022-12-09T02:04:54.212Z,12.10
2022-12-09T02:05:04.278Z,12.00
2022-12-09T02:05:14.163Z,12.50
2022-12-09T02:05:24.431Z,11.70
2022-12-09T02:05:34.862Z,12.10
2022-12-09T02:05:44.091Z,11.80
2022-12-09T02:05:54.187Z,12.70
2022-12-09T02:06:04.501Z,12.10
2022-12-09T02:06:14.087Z,12.90
2022-12-09T02:06:24.443Z,13.00
2022-12-09T02:06:34.123Z,12.80
2022-12-09T02:06:44.122Z,12.40
2022-12-09T02:06:54.220Z,12.50
2022-12-09T02:07:04.103Z,12.30
2022-12-09T02:07:14.090Z,11.70
2022-12-09T02:07:24.721Z,11.70
2022-12-09T02:07:34.412Z,12.40
2022-12-09T02:07:44.441Z,12.90
2022-12-09T02:07:54.409Z,13.20
2022-12-09T02:08:04.228Z,13.20
2022-12-09T02:08:14.138Z,12.60
2022-12-09T02:08:24.264Z,12.00
2022-12-09T02:08:34.202Z,11.00
2022-12-09T02:08:44.218Z,11.20